sensor_id;sensor_type;location;lat;lon;timestamp;pressure;altitude;pressure_sealevel;temperature;humidity
70468;BME280;57934;51.532;7.684;2022-12-16T00:02:03;99792.31;;;-6.08;95.14
70468;BME280;57934;51.532;7.684;2022-12-16T00:04:29;99788.34;;;-5.99;95.22
70468;BME280;57934;51.532;7.684;2022-12-16T00:06:55;99789.88;;;-6.10;94.44
70468;BME280;57934;51.532;7.684;2022-12-16T00:09:21;99777.03;;;-6.10;94.69
70468;BME280;57934;51.532;7.684;2022-12-16T00:11:47;99781.34;;;-6.10;94.61
70468;BME280;57934;51.532;7.684;2022-12-16T00:14:13;99770.25;;;-6.11;94.35
70468;BME280;57934;51.532;7.684;2022-12-16T00:16:39;99779.81;;;-6.13;94.69
70468;BME280;57934;51.532;7.684;2022-12-16T00:19:05;99774.66;;;-6.13;94.89
70468;BME280;57934;51.532;7.684;2022-12-16T00:21:31;99778.16;;;-6.14;94.60
70468;BME280;57934;51.532;7.684;2022-12-16T00:23:57;99778.16;;;-6.14;94.45
70468;BME280;57934;51.532;7.684;2022-12-16T00:26:23;99779.88;;;-6.14;94.53
70468;BME280;57934;51.532;7.684;2022-12-16T00:28:49;99783.81;;;-6.09;94.44
70468;BME280;57934;51.532;7.684;2022-12-16T00:31:16;99778.88;;;-6.12;94.30
70468;BME280;57934;51.532;7.684;2022-12-16T00:33:42;99776.50;;;-6.15;94.75
70468;BME280;57934;51.532;7.684;2022-12-16T00:36:08;99779.69;;;-6.11;94.44
70468;BME280;57934;51.532;7.684;2022-12-16T00:38:34;99781.44;;;-6.12;94.63
70468;BME280;57934;51.532;7.684;2022-12-16T00:41:00;99779.81;;;-6.13;94.65
70468;BME280;57934;51.532;7.684;2022-12-16T00:43:26;99782.88;;;-6.08;94.86
70468;BME280;57934;51.532;7.684;2022-12-16T00:45:52;99781.03;;;-6.06;94.90
70468;BME280;57934;51.532;7.684;2022-12-16T00:48:19;99778.56;;;-6.07;94.70
70468;BME280;57934;51.532;7.684;2022-12-16T00:50:49;99783.00;;;-6.09;94.98
70468;BME280;57934;51.532;7.684;2022-12-16T00:53:16;99783.81;;;-6.09;94.94
70468;BME280;57934;51.532;7.684;2022-12-16T00:55:42;99783.00;;;-6.09;94.83
70468;BME280;57934;51.532;7.684;2022-12-16T00:58:08;99784.44;;;-6.05;95.12
70468;BME280;57934;51.532;7.684;2022-12-16T01:00:34;99775.91;;;-6.06;95.09
70468;BME280;57934;51.532;7.684;2022-12-16T01:03:00;99777.47;;;-6.03;94.93
70468;BME280;57934;51.532;7.684;2022-12-16T01:05:26;99777.84;;;-6.09;95.02
70468;BME280;57934;51.532;7.684;2022-12-16T01:07:53;99776.09;;;-6.09;95.02
70468;BME280;57934;51.532;7.684;2022-12-16T01:10:20;99775.09;;;-6.06;94.72
70468;BME280;57934;51.532;7.684;2022-12-16T01:12:46;99777.94;;;-6.11;95.14
70468;BME280;57934;51.532;7.684;2022-12-16T01:15:12;99784.00;;;-6.12;95.15
70468;BME280;57934;51.532;7.684;2022-12-16T01:17:40;99787.38;;;-6.11;95.08
70468;BME280;57934;51.532;7.684;2022-12-16T01:20:07;99791.19;;;-6.04;95.26
70468;BME280;57934;51.532;7.684;2022-12-16T01:22:33;99789.38;;;-6.02;95.10
70468;BME280;57934;51.532;7.684;2022-12-16T01:24:59;99783.69;;;-6.07;95.27
70468;BME280;57934;51.532;7.684;2022-12-16T01:27:26;99800.94;;;-6.09;95.11
70468;BME280;57934;51.532;7.684;2022-12-16T01:29:53;99801.97;;;-6.12;95.16
70468;BME280;57934;51.532;7.684;2022-12-16T01:32:19;99808.22;;;-6.16;95.30
70468;BME280;57934;51.532;7.684;2022-12-16T01:34:53;99813.53;;;-6.19;95.26
70468;BME280;57934;51.532;7.684;2022-12-16T01:37:19;99813.66;;;-6.08;95.40
70468;BME280;57934;51.532;7.684;2022-12-16T01:39:46;99824.22;;;-6.12;95.55
70468;BME280;57934;51.532;7.684;2022-12-16T01:42:14;99818.09;;;-6.10;95.30
70468;BME280;57934;51.532;7.684;2022-12-16T01:44:42;99817.69;;;-6.04;95.01
70468;BME280;57934;51.532;7.684;2022-12-16T01:47:16;99813.59;;;-6.06;95.04
70468;BME280;57934;51.532;7.684;2022-12-16T01:49:47;99817.91;;;-6.07;95.02
70468;BME280;57934;51.532;7.684;2022-12-16T01:52:19;99806.06;;;-6.09;94.62
70468;BME280;57934;51.532;7.684;2022-12-16T01:54:51;99811.28;;;-6.11;94.54
70468;BME280;57934;51.532;7.684;2022-12-16T01:57:25;99814.41;;;-6.06;94.87
70468;BME280;57934;51.532;7.684;2022-12-16T01:59:53;99812.56;;;-6.04;95.02
70468;BME280;57934;51.532;7.684;2022-12-16T02:02:20;99815.03;;;-6.02;94.67
70468;BME280;57934;51.532;7.684;2022-12-16T02:04:47;99815.94;;;-6.03;94.79
70468;BME280;57934;51.532;7.684;2022-12-16T02:07:32;99812.69;;;-5.92;94.60
70468;BME280;57934;51.532;7.684;2022-12-16T02:09:58;99800.13;;;-5.97;94.76
70468;BME280;57934;51.532;7.684;2022-12-16T02:21:06;99817.09;;;-5.94;94.65
70468;BME280;57934;51.532;7.684;2022-12-16T02:24:07;99814.63;;;-5.96;94.68
70468;BME280;57934;51.532;7.684;2022-12-16T02:26:50;99811.63;;;-6.03;94.87
70468;BME280;57934;51.532;7.684;2022-12-16T02:32:32;99809.06;;;-6.03;95.23
70468;BME280;57934;51.532;7.684;2022-12-16T02:37:41;99818.41;;;-6.02;95.77
70468;BME280;57934;51.532;7.684;2022-12-16T02:40:17;99815.03;;;-6.02;95.87
70468;BME280;57934;51.532;7.684;2022-12-16T02:42:52;99823.53;;;-6.02;95.77
70468;BME280;57934;51.532;7.684;2022-12-16T02:45:26;99823.03;;;-6.07;95.81
70468;BME280;57934;51.532;7.684;2022-12-16T02:47:53;99822.19;;;-6.07;95.83
70468;BME280;57934;51.532;7.684;2022-12-16T02:52:46;99814.28;;;-6.17;95.95
70468;BME280;57934;51.532;7.684;2022-12-16T02:55:13;99822.78;;;-6.16;96.21
70468;BME280;57934;51.532;7.684;2022-12-16T02:57:58;99812.84;;;-6.21;95.92
70468;BME280;57934;51.532;7.684;2022-12-16T03:00:28;99814.78;;;-6.12;95.90
70468;BME280;57934;51.532;7.684;2022-12-16T03:03:08;99818.78;;;-6.08;96.00
70468;BME280;57934;51.532;7.684;2022-12-16T03:05:46;99814.47;;;-6.07;95.63
70468;BME280;57934;51.532;7.684;2022-12-16T03:08:18;99825.69;;;-6.08;95.59
70468;BME280;57934;51.532;7.684;2022-12-16T03:10:50;99815.53;;;-6.10;95.71
70468;BME280;57934;51.532;7.684;2022-12-16T03:13:19;99829.47;;;-6.14;95.44
70468;BME280;57934;51.532;7.684;2022-12-16T03:15:48;99822.97;;;-6.19;95.47
70468;BME280;57934;51.532;7.684;2022-12-16T03:18:18;99823.09;;;-6.21;95.45
70468;BME280;57934;51.532;7.684;2022-12-16T03:20:51;99826.75;;;-6.25;95.65
70468;BME280;57934;51.532;7.684;2022-12-16T03:23:27;99827.78;;;-6.28;95.48
70468;BME280;57934;51.532;7.684;2022-12-16T03:26:01;99819.66;;;-6.34;95.53
70468;BME280;57934;51.532;7.684;2022-12-16T03:28:41;99815.53;;;-6.37;95.71
70468;BME280;57934;51.532;7.684;2022-12-16T03:31:18;99817.91;;;-6.34;95.77
70468;BME280;57934;51.532;7.684;2022-12-16T03:36:56;99826.34;;;-6.32;95.39
70468;BME280;57934;51.532;7.684;2022-12-16T03:39:25;99831.34;;;-6.30;94.85
70468;BME280;57934;51.532;7.684;2022-12-16T03:41:52;99822.66;;;-6.28;94.54
70468;BME280;57934;51.532;7.684;2022-12-16T03:44:21;99825.94;;;-6.26;94.61
70468;BME280;57934;51.532;7.684;2022-12-16T03:46:47;99833.63;;;-6.26;94.08
70468;BME280;57934;51.532;7.684;2022-12-16T03:49:13;99835.69;;;-6.18;93.71
70468;BME280;57934;51.532;7.684;2022-12-16T03:51:39;99835.38;;;-6.26;93.88
70468;BME280;57934;51.532;7.684;2022-12-16T03:54:05;99838.94;;;-6.29;93.61
70468;BME280;57934;51.532;7.684;2022-12-16T03:56:31;99826.84;;;-6.27;93.19
70468;BME280;57934;51.532;7.684;2022-12-16T03:58:57;99838.47;;;-6.21;93.09
70468;BME280;57934;51.532;7.684;2022-12-16T04:01:23;99842.53;;;-6.31;93.04
70468;BME280;57934;51.532;7.684;2022-12-16T04:03:49;99845.94;;;-6.31;93.41
70468;BME280;57934;51.532;7.684;2022-12-16T04:06:15;99840.88;;;-6.32;93.13
70468;BME280;57934;51.532;7.684;2022-12-16T04:08:45;99841.06;;;-6.35;93.14
70468;BME280;57934;51.532;7.684;2022-12-16T04:11:12;99841.19;;;-6.37;93.21
70468;BME280;57934;51.532;7.684;2022-12-16T04:14:10;99839.81;;;-6.42;93.09
70468;BME280;57934;51.532;7.684;2022-12-16T04:16:55;99842.47;;;-6.44;93.26
70468;BME280;57934;51.532;7.684;2022-12-16T04:19:42;99851.53;;;-6.38;93.55
70468;BME280;57934;51.532;7.684;2022-12-16T04:22:33;99853.25;;;-6.39;93.38
70468;BME280;57934;51.532;7.684;2022-12-16T04:25:25;99850.28;;;-6.45;93.28
70468;BME280;57934;51.532;7.684;2022-12-16T04:27:53;99854.69;;;-6.47;93.34
70468;BME280;57934;51.532;7.684;2022-12-16T04:30:19;99857.59;;;-6.54;93.28
70468;BME280;57934;51.532;7.684;2022-12-16T04:35:33;99862.84;;;-6.55;93.64
70468;BME280;57934;51.532;7.684;2022-12-16T04:38:17;99866.22;;;-6.55;93.38
70468;BME280;57934;51.532;7.684;2022-12-16T04:41:02;99868.06;;;-6.57;93.53
70468;BME280;57934;51.532;7.684;2022-12-16T04:43:47;99871.47;;;-6.56;93.37
70468;BME280;57934;51.532;7.684;2022-12-16T04:46:31;99875.97;;;-6.60;93.19
70468;BME280;57934;51.532;7.684;2022-12-16T04:49:16;99871.53;;;-6.58;93.98
70468;BME280;57934;51.532;7.684;2022-12-16T04:52:01;99874.22;;;-6.59;93.72
70468;BME280;57934;51.532;7.684;2022-12-16T04:54:45;99877.66;;;-6.60;93.82
70468;BME280;57934;51.532;7.684;2022-12-16T04:57:30;99880.34;;;-6.62;93.79
70468;BME280;57934;51.532;7.684;2022-12-16T05:00:15;99888.09;;;-6.63;93.45
70468;BME280;57934;51.532;7.684;2022-12-16T05:02:59;99891.88;;;-6.69;93.61
70468;BME280;57934;51.532;7.684;2022-12-16T05:05:43;99893.72;;;-6.71;93.62
70468;BME280;57934;51.532;7.684;2022-12-16T05:08:28;99892.06;;;-6.72;93.32
70468;BME280;57934;51.532;7.684;2022-12-16T05:11:12;99891.25;;;-6.73;93.55
70468;BME280;57934;51.532;7.684;2022-12-16T05:13:57;99899.94;;;-6.75;93.36
70468;BME280;57934;51.532;7.684;2022-12-16T05:16:41;99896.75;;;-6.79;93.46
70468;BME280;57934;51.532;7.684;2022-12-16T05:19:26;99896.56;;;-6.76;92.98
70468;BME280;57934;51.532;7.684;2022-12-16T05:22:10;99905.81;;;-6.73;93.24
70468;BME280;57934;51.532;7.684;2022-12-16T05:24:55;99905.16;;;-6.77;93.16
70468;BME280;57934;51.532;7.684;2022-12-16T05:27:39;99905.88;;;-6.75;92.61
70468;BME280;57934;51.532;7.684;2022-12-16T05:30:24;99907.63;;;-6.75;92.81
70468;BME280;57934;51.532;7.684;2022-12-16T05:33:08;99911.28;;;-6.79;92.72
70468;BME280;57934;51.532;7.684;2022-12-16T05:35:53;99906.28;;;-6.81;92.75
70468;BME280;57934;51.532;7.684;2022-12-16T05:38:37;99912.75;;;-6.89;92.67
70468;BME280;57934;51.532;7.684;2022-12-16T05:41:22;99920.09;;;-6.83;92.20
70468;BME280;57934;51.532;7.684;2022-12-16T05:44:06;99921.19;;;-6.87;92.19
70468;BME280;57934;51.532;7.684;2022-12-16T05:46:51;99937.00;;;-6.95;92.58
70468;BME280;57934;51.532;7.684;2022-12-16T05:49:35;99935.47;;;-6.98;92.39
70468;BME280;57934;51.532;7.684;2022-12-16T05:52:20;99940.47;;;-6.96;92.11
70468;BME280;57934;51.532;7.684;2022-12-16T05:55:04;99938.03;;;-6.98;92.61
70468;BME280;57934;51.532;7.684;2022-12-16T05:57:50;99943.16;;;-6.98;92.46
70468;BME280;57934;51.532;7.684;2022-12-16T06:00:35;99952.66;;;-7.00;92.55
70468;BME280;57934;51.532;7.684;2022-12-16T06:03:21;99945.88;;;-7.01;92.56
70468;BME280;57934;51.532;7.684;2022-12-16T06:06:06;99959.41;;;-6.99;92.86
70468;BME280;57934;51.532;7.684;2022-12-16T06:08:51;99968.50;;;-6.93;92.30
70468;BME280;57934;51.532;7.684;2022-12-16T06:11:35;99976.06;;;-6.91;92.39
70468;BME280;57934;51.532;7.684;2022-12-16T06:14:20;99978.00;;;-6.95;92.68
70468;BME280;57934;51.532;7.684;2022-12-16T06:17:04;99981.19;;;-6.91;92.47
70468;BME280;57934;51.532;7.684;2022-12-16T06:19:48;99983.38;;;-7.00;92.83
70468;BME280;57934;51.532;7.684;2022-12-16T06:22:33;99993.09;;;-7.05;92.50
70468;BME280;57934;51.532;7.684;2022-12-16T06:25:17;100000.84;;;-7.06;92.46
70468;BME280;57934;51.532;7.684;2022-12-16T06:28:02;99998.91;;;-7.17;92.44
70468;BME280;57934;51.532;7.684;2022-12-16T06:30:47;100008.59;;;-7.22;92.50
70468;BME280;57934;51.532;7.684;2022-12-16T06:33:31;100009.59;;;-7.25;92.65
70468;BME280;57934;51.532;7.684;2022-12-16T06:36:16;100008.94;;;-7.28;92.54
70468;BME280;57934;51.532;7.684;2022-12-16T06:39:01;100007.19;;;-7.28;92.98
70468;BME280;57934;51.532;7.684;2022-12-16T06:41:45;100012.25;;;-7.26;93.01
70468;BME280;57934;51.532;7.684;2022-12-16T06:44:29;100019.84;;;-7.25;92.51
70468;BME280;57934;51.532;7.684;2022-12-16T06:47:14;100017.78;;;-7.34;92.35
70468;BME280;57934;51.532;7.684;2022-12-16T06:49:59;100019.53;;;-7.34;92.36
70468;BME280;57934;51.532;7.684;2022-12-16T06:52:44;100024.63;;;-7.34;92.00
70468;BME280;57934;51.532;7.684;2022-12-16T06:55:29;100024.81;;;-7.37;92.32
70468;BME280;57934;51.532;7.684;2022-12-16T06:58:14;100032.75;;;-7.42;92.31
70468;BME280;57934;51.532;7.684;2022-12-16T07:00:58;100046.78;;;-7.33;92.24
70468;BME280;57934;51.532;7.684;2022-12-16T07:03:43;100045.13;;;-7.34;91.98
70468;BME280;57934;51.532;7.684;2022-12-16T07:06:27;100056.28;;;-7.35;91.77
70468;BME280;57934;51.532;7.684;2022-12-16T07:09:12;100064.63;;;-7.32;91.51
70468;BME280;57934;51.532;7.684;2022-12-16T07:11:56;100057.38;;;-7.39;91.52
70468;BME280;57934;51.532;7.684;2022-12-16T07:14:41;100058.34;;;-7.42;91.47
70468;BME280;57934;51.532;7.684;2022-12-16T07:17:25;100066.69;;;-7.38;91.02
70468;BME280;57934;51.532;7.684;2022-12-16T07:20:10;100066.53;;;-7.35;91.59
70468;BME280;57934;51.532;7.684;2022-12-16T07:22:54;100067.50;;;-7.38;91.57
70468;BME280;57934;51.532;7.684;2022-12-16T07:25:39;100078.25;;;-7.31;91.40
70468;BME280;57934;51.532;7.684;2022-12-16T07:28:23;100074.03;;;-7.32;91.17
70468;BME280;57934;51.532;7.684;2022-12-16T07:31:07;100077.44;;;-7.32;90.85
70468;BME280;57934;51.532;7.684;2022-12-16T07:33:52;100089.41;;;-7.32;90.99
70468;BME280;57934;51.532;7.684;2022-12-16T07:36:36;100096.94;;;-7.29;91.22
70468;BME280;57934;51.532;7.684;2022-12-16T07:39:20;100099.38;;;-7.28;90.88
70468;BME280;57934;51.532;7.684;2022-12-16T07:42:08;100104.50;;;-7.28;91.28
70468;BME280;57934;51.532;7.684;2022-12-16T07:44:52;100110.03;;;-7.20;91.33
70468;BME280;57934;51.532;7.684;2022-12-16T07:47:37;100113.00;;;-7.11;90.89
70468;BME280;57934;51.532;7.684;2022-12-16T07:50:21;100113.19;;;-7.14;90.30
70468;BME280;57934;51.532;7.684;2022-12-16T07:53:06;100122.50;;;-7.13;90.39
70468;BME280;57934;51.532;7.684;2022-12-16T07:55:59;100123.16;;;-7.10;90.07
70468;BME280;57934;51.532;7.684;2022-12-16T07:58:43;100129.19;;;-7.11;90.07
70468;BME280;57934;51.532;7.684;2022-12-16T08:01:28;100132.50;;;-7.09;89.74
70468;BME280;57934;51.532;7.684;2022-12-16T08:04:12;100139.34;;;-7.09;89.96
70468;BME280;57934;51.532;7.684;2022-12-16T08:06:57;100140.09;;;-7.07;90.03
70468;BME280;57934;51.532;7.684;2022-12-16T08:09:41;100140.91;;;-7.07;89.73
70468;BME280;57934;51.532;7.684;2022-12-16T08:12:25;100146.22;;;-7.10;90.04
70468;BME280;57934;51.532;7.684;2022-12-16T08:15:09;100149.44;;;-7.06;90.26
70468;BME280;57934;51.532;7.684;2022-12-16T08:17:54;100155.53;;;-6.93;89.73
70468;BME280;57934;51.532;7.684;2022-12-16T08:20:38;100157.88;;;-6.74;89.76
70468;BME280;57934;51.532;7.684;2022-12-16T08:23:23;100163.13;;;-6.45;89.71
70468;BME280;57934;51.532;7.684;2022-12-16T08:26:07;100166.72;;;-6.34;89.21
70468;BME280;57934;51.532;7.684;2022-12-16T08:28:52;100170.69;;;-6.28;88.47
70468;BME280;57934;51.532;7.684;2022-12-16T08:31:36;100176.72;;;-6.15;88.86
70468;BME280;57934;51.532;7.684;2022-12-16T08:34:21;100170.31;;;-5.93;88.60
70468;BME280;57934;51.532;7.684;2022-12-16T08:37:05;100170.22;;;-5.63;88.08
70468;BME280;57934;51.532;7.684;2022-12-16T08:39:49;100166.34;;;-5.42;87.40
70468;BME280;57934;51.532;7.684;2022-12-16T08:42:34;100166.53;;;-4.64;86.81
70468;BME280;57934;51.532;7.684;2022-12-16T08:45:18;100171.56;;;-3.84;83.66
70468;BME280;57934;51.532;7.684;2022-12-16T08:48:03;100171.03;;;-3.64;81.53
70468;BME280;57934;51.532;7.684;2022-12-16T08:50:48;100182.41;;;-3.79;80.38
70468;BME280;57934;51.532;7.684;2022-12-16T08:53:32;100181.25;;;-3.75;80.15
70468;BME280;57934;51.532;7.684;2022-12-16T08:56:17;100185.09;;;-3.31;79.86
70468;BME280;57934;51.532;7.684;2022-12-16T08:59:01;100177.38;;;-2.35;77.73
70468;BME280;57934;51.532;7.684;2022-12-16T09:01:47;100179.56;;;-1.28;75.10
70468;BME280;57934;51.532;7.684;2022-12-16T09:04:31;100180.66;;;-0.34;70.90
70468;BME280;57934;51.532;7.684;2022-12-16T09:07:16;100184.75;;;0.41;67.61
70468;BME280;57934;51.532;7.684;2022-12-16T09:10:00;100184.78;;;0.82;65.78
70468;BME280;57934;51.532;7.684;2022-12-16T09:12:45;100183.72;;;1.04;64.73
70468;BME280;57934;51.532;7.684;2022-12-16T09:15:30;100197.94;;;1.19;63.49
70468;BME280;57934;51.532;7.684;2022-12-16T09:18:14;100191.97;;;1.38;63.50
70468;BME280;57934;51.532;7.684;2022-12-16T09:20:58;100202.34;;;1.86;61.66
70468;BME280;57934;51.532;7.684;2022-12-16T09:23:43;100208.56;;;2.13;60.99
70468;BME280;57934;51.532;7.684;2022-12-16T09:26:28;100203.38;;;2.03;60.87
70468;BME280;57934;51.532;7.684;2022-12-16T09:29:13;100207.97;;;1.72;60.81
70468;BME280;57934;51.532;7.684;2022-12-16T09:31:57;100218.94;;;0.97;62.37
70468;BME280;57934;51.532;7.684;2022-12-16T09:34:45;100221.47;;;0.16;64.67
70468;BME280;57934;51.532;7.684;2022-12-16T09:37:29;100213.47;;;-0.23;67.21
70468;BME280;57934;51.532;7.684;2022-12-16T09:40:15;100224.75;;;-0.45;67.11
70468;BME280;57934;51.532;7.684;2022-12-16T09:43:10;100219.00;;;-0.81;68.75
70468;BME280;57934;51.532;7.684;2022-12-16T09:46:02;100224.84;;;-0.79;69.41
70468;BME280;57934;51.532;7.684;2022-12-16T09:48:58;100230.41;;;-0.83;69.89
70468;BME280;57934;51.532;7.684;2022-12-16T09:51:52;100236.91;;;-1.45;71.14
70468;BME280;57934;51.532;7.684;2022-12-16T09:54:46;100238.59;;;-2.02;72.74
70468;BME280;57934;51.532;7.684;2022-12-16T09:57:34;100251.25;;;-2.45;74.91
70468;BME280;57934;51.532;7.684;2022-12-16T10:00:22;100255.69;;;-2.71;76.32
70468;BME280;57934;51.532;7.684;2022-12-16T10:03:26;100251.50;;;-2.85;77.85
70468;BME280;57934;51.532;7.684;2022-12-16T10:06:31;100253.38;;;-2.87;79.16
70468;BME280;57934;51.532;7.684;2022-12-16T10:09:27;100250.06;;;-2.89;80.15
70468;BME280;57934;51.532;7.684;2022-12-16T10:12:35;100261.53;;;-2.93;80.69
70468;BME280;57934;51.532;7.684;2022-12-16T10:15:43;100251.16;;;-3.04;81.72
70468;BME280;57934;51.532;7.684;2022-12-16T10:18:36;100252.06;;;-3.05;81.83
70468;BME280;57934;51.532;7.684;2022-12-16T10:21:29;100262.78;;;-2.99;82.69
70468;BME280;57934;51.532;7.684;2022-12-16T10:24:29;100264.84;;;-2.91;83.25
70468;BME280;57934;51.532;7.684;2022-12-16T10:27:23;100263.47;;;-2.84;83.54
70468;BME280;57934;51.532;7.684;2022-12-16T10:30:13;100269.88;;;-2.77;83.23
70468;BME280;57934;51.532;7.684;2022-12-16T10:32:59;100269.84;;;-2.53;83.36
70468;BME280;57934;51.532;7.684;2022-12-16T10:35:47;100277.06;;;-2.45;82.94
70468;BME280;57934;51.532;7.684;2022-12-16T10:38:39;100276.91;;;-2.31;82.39
70468;BME280;57934;51.532;7.684;2022-12-16T10:41:27;100270.78;;;-2.06;82.09
70468;BME280;57934;51.532;7.684;2022-12-16T10:44:25;100272.72;;;-1.85;80.97
70468;BME280;57934;51.532;7.684;2022-12-16T10:47:10;100280.47;;;-1.85;80.78
70468;BME280;57934;51.532;7.684;2022-12-16T10:49:55;100281.38;;;-1.86;81.48
70468;BME280;57934;51.532;7.684;2022-12-16T10:52:49;100285.03;;;-1.89;82.19
70468;BME280;57934;51.532;7.684;2022-12-16T10:55:57;100282.22;;;-1.86;81.93
70468;BME280;57934;51.532;7.684;2022-12-16T11:01:32;100287.81;;;-1.57;81.85
70468;BME280;57934;51.532;7.684;2022-12-16T11:04:27;100285.59;;;-1.28;81.27
70468;BME280;57934;51.532;7.684;2022-12-16T11:10:41;100271.94;;;-0.09;78.59
70468;BME280;57934;51.532;7.684;2022-12-16T11:13:35;100272.75;;;0.85;75.38
70468;BME280;57934;51.532;7.684;2022-12-16T11:16:26;100270.31;;;1.62;72.60
70468;BME280;57934;51.532;7.684;2022-12-16T11:19:23;100274.75;;;2.38;68.97
70468;BME280;57934;51.532;7.684;2022-12-16T11:22:16;100274.59;;;2.96;67.29
70468;BME280;57934;51.532;7.684;2022-12-16T11:25:15;100269.19;;;3.53;64.52
70468;BME280;57934;51.532;7.684;2022-12-16T11:28:11;100267.94;;;4.45;62.70
70468;BME280;57934;51.532;7.684;2022-12-16T11:30:59;100261.91;;;6.12;57.44
70468;BME280;57934;51.532;7.684;2022-12-16T11:33:47;100254.59;;;8.11;52.71
70468;BME280;57934;51.532;7.684;2022-12-16T11:36:34;100265.25;;;8.62;49.87
70468;BME280;57934;51.532;7.684;2022-12-16T11:39:23;100271.72;;;6.90;50.96
70468;BME280;57934;51.532;7.684;2022-12-16T11:42:20;100269.59;;;5.97;54.09
70468;BME280;57934;51.532;7.684;2022-12-16T11:45:12;100275.50;;;4.56;57.32
70468;BME280;57934;51.532;7.684;2022-12-16T11:48:06;100278.56;;;3.64;61.29
70468;BME280;57934;51.532;7.684;2022-12-16T11:50:56;100275.00;;;6.12;58.41
70468;BME280;57934;51.532;7.684;2022-12-16T11:53:48;100270.31;;;9.08;49.60
70468;BME280;57934;51.532;7.684;2022-12-16T11:56:40;100269.84;;;11.31;43.98
70468;BME280;57934;51.532;7.684;2022-12-16T11:59:39;100267.75;;;12.34;41.57
70468;BME280;57934;51.532;7.684;2022-12-16T12:02:45;100277.50;;;10.71;42.53
70468;BME280;57934;51.532;7.684;2022-12-16T12:05:36;100288.59;;;7.58;47.83
70468;BME280;57934;51.532;7.684;2022-12-16T12:08:44;100282.41;;;5.42;54.25
70468;BME280;57934;51.532;7.684;2022-12-16T12:11:35;100295.25;;;3.53;59.62
70468;BME280;57934;51.532;7.684;2022-12-16T12:14:39;100293.84;;;1.80;64.69
70468;BME280;57934;51.532;7.684;2022-12-16T12:21:22;100296.41;;;0.19;72.37
70468;BME280;57934;51.532;7.684;2022-12-16T12:27:23;100299.56;;;-0.31;76.64
70468;BME280;57934;51.532;7.684;2022-12-16T12:30:14;100296.31;;;-0.44;78.28
70468;BME280;57934;51.532;7.684;2022-12-16T12:33:32;100295.53;;;-0.56;79.47
70468;BME280;57934;51.532;7.684;2022-12-16T12:36:34;100300.38;;;-0.62;80.69
70468;BME280;57934;51.532;7.684;2022-12-16T12:39:33;100297.81;;;-0.74;81.09
70468;BME280;57934;51.532;7.684;2022-12-16T12:42:26;100309.31;;;-0.78;81.67
70468;BME280;57934;51.532;7.684;2022-12-16T12:51:27;100308.97;;;-0.84;84.15
70468;BME280;57934;51.532;7.684;2022-12-16T12:54:33;100303.09;;;-0.86;84.58
70468;BME280;57934;51.532;7.684;2022-12-16T12:57:23;100300.28;;;-0.83;85.00
70468;BME280;57934;51.532;7.684;2022-12-16T13:00:21;100308.63;;;-0.80;85.28
70468;BME280;57934;51.532;7.684;2022-12-16T13:06:16;100299.91;;;-0.79;85.52
70468;BME280;57934;51.532;7.684;2022-12-16T13:09:02;100307.00;;;-0.81;85.68
70468;BME280;57934;51.532;7.684;2022-12-16T13:20:48;100315.31;;;-0.66;85.47
70468;BME280;57934;51.532;7.684;2022-12-16T13:23:35;100316.84;;;-0.75;85.39
70468;BME280;57934;51.532;7.684;2022-12-16T13:26:22;100320.38;;;-0.76;86.15
70468;BME280;57934;51.532;7.684;2022-12-16T13:32:11;100325.78;;;-0.79;86.39
70468;BME280;57934;51.532;7.684;2022-12-16T13:35:03;100325.94;;;-0.80;86.14
70468;BME280;57934;51.532;7.684;2022-12-16T13:38:20;100326.75;;;-0.80;86.72
70468;BME280;57934;51.532;7.684;2022-12-16T13:44:11;100328.84;;;-0.85;86.27
70468;BME280;57934;51.532;7.684;2022-12-16T13:46:56;100339.44;;;-0.88;86.67
70468;BME280;57934;51.532;7.684;2022-12-16T13:49:49;100338.63;;;-0.88;86.57
70468;BME280;57934;51.532;7.684;2022-12-16T13:52:47;100349.19;;;-0.91;86.98
70468;BME280;57934;51.532;7.684;2022-12-16T13:55:54;100348.97;;;-0.88;86.60
70468;BME280;57934;51.532;7.684;2022-12-16T13:58:43;100353.09;;;-0.86;86.22
70468;BME280;57934;51.532;7.684;2022-12-16T14:01:37;100363.31;;;-0.96;87.06
70468;BME280;57934;51.532;7.684;2022-12-16T14:04:27;100371.00;;;-0.94;86.82
70468;BME280;57934;51.532;7.684;2022-12-16T14:07:16;100371.56;;;-1.02;86.78
70468;BME280;57934;51.532;7.684;2022-12-16T14:10:03;100370.41;;;-1.09;87.08
70468;BME280;57934;51.532;7.684;2022-12-16T14:12:59;100378.38;;;-1.12;86.90
70468;BME280;57934;51.532;7.684;2022-12-16T14:21:49;100391.97;;;-1.32;87.55
70468;BME280;57934;51.532;7.684;2022-12-16T14:24:36;100394.19;;;-1.39;87.55
70468;BME280;57934;51.532;7.684;2022-12-16T14:27:22;100398.88;;;-1.44;88.05
70468;BME280;57934;51.532;7.684;2022-12-16T14:33:00;100404.50;;;-1.50;88.45
70468;BME280;57934;51.532;7.684;2022-12-16T14:35:57;100408.00;;;-1.51;88.51
70468;BME280;57934;51.532;7.684;2022-12-16T14:38:46;100399.19;;;-1.60;89.16
70468;BME280;57934;51.532;7.684;2022-12-16T14:41:32;100409.25;;;-1.68;88.80
70468;BME280;57934;51.532;7.684;2022-12-16T14:44:23;100418.28;;;-1.74;89.42
70468;BME280;57934;51.532;7.684;2022-12-16T14:47:16;100416.72;;;-1.76;89.56
70468;BME280;57934;51.532;7.684;2022-12-16T14:50:01;100423.06;;;-1.80;90.23
70468;BME280;57934;51.532;7.684;2022-12-16T14:52:46;100424.38;;;-1.75;90.11
70468;BME280;57934;51.532;7.684;2022-12-16T14:55:33;100426.94;;;-1.86;89.99
70468;BME280;57934;51.532;7.684;2022-12-16T14:58:22;100434.81;;;-2.00;89.78
70468;BME280;57934;51.532;7.684;2022-12-16T15:01:27;100434.97;;;-2.14;90.39
70468;BME280;57934;51.532;7.684;2022-12-16T15:04:20;100435.19;;;-2.18;91.27
70468;BME280;57934;51.532;7.684;2022-12-16T15:07:07;100432.53;;;-2.29;91.13
70468;BME280;57934;51.532;7.684;2022-12-16T15:09:56;100444.81;;;-2.32;91.12
70468;BME280;57934;51.532;7.684;2022-12-16T15:12:43;100450.72;;;-2.43;91.38
70468;BME280;57934;51.532;7.684;2022-12-16T15:15:48;100453.63;;;-2.48;91.95
70468;BME280;57934;51.532;7.684;2022-12-16T15:18:37;100453.84;;;-2.51;92.45
70468;BME280;57934;51.532;7.684;2022-12-16T15:21:23;100468.91;;;-2.57;92.37
70468;BME280;57934;51.532;7.684;2022-12-16T15:24:10;100469.31;;;-2.64;92.93
70468;BME280;57934;51.532;7.684;2022-12-16T15:33:19;100480.88;;;-2.82;93.19